^^
Saratoga-Weather Station Historical Data
Daily Summary for October 30, 2021 Units:  Both    English   Metric
Daily Weekly Monthly Yearly Custom
  High: Low: Average:
Temperature: 57.4 °F /  14.1 °C 50.5 °F /  10.3 °C 53.1 °F /  11.7 °C
Dew Point: 55.4 °F /  13 °C 48.2 °F /  9 °C 51.1 °F /  10.6 °C
Humidity: 96% 84% 93%
Wind Speed: 6.9mph /  11.1km/h - 1.2mph /  2km/h
Wind Gust: 11mph /  17.7km/h - -
Wind- - ESE
Pressure: 29.8 in /  1007.8 hPa 29.6 in /  1002.0 hPa -
Precipitation: 0.46 in /  11.7 mm    
Historical Graphs
 
 
Tabular Data for October 30, 2021
Time Temperature Dew Point Pressure Wind Wind Speed Wind Gust Humidity Rainfall Rate (Hourly) solar
00:02 52.2 °F /  11.2 °C 48.7 °F /  9.3 °C 29.8in /  1007.8hPa Calm     88% 0in /  0.0mm 0 W/m2
00:07 52.2 °F /  11.2 °C 48.7 °F /  9.3 °C 29.8in /  1007.8hPa Calm     88% 0in /  0.0mm 0 W/m2
00:12 52.2 °F /  11.2 °C 49.1 °F /  9.5 °C 29.8in /  1007.8hPa Calm     89% 0in /  0.0mm 0 W/m2
00:17 52 °F /  11.1 °C 48.9 °F /  9.4 °C 29.8in /  1007.8hPa Calm     89% 0in /  0.0mm 0 W/m2
00:22 52 °F /  11.1 °C 48.9 °F /  9.4 °C 29.8in /  1007.8hPa Calm     89% 0in /  0.0mm 0 W/m2
00:27 52 °F /  11.1 °C 48.9 °F /  9.4 °C 29.8in /  1007.8hPa Calm     89% 0in /  0.0mm 0 W/m2
00:32 52 °F /  11.1 °C 48.9 °F /  9.4 °C 29.8in /  1007.8hPa Calm     89% 0in /  0.0mm 0 W/m2
00:37 51.8 °F /  11 °C 48.7 °F /  9.3 °C 29.8in /  1007.5hPa Calm     89% 0in /  0.0mm 0 W/m2
00:42 51.8 °F /  11 °C 48.7 °F /  9.3 °C 29.8in /  1007.5hPa Calm     89% 0in /  0.0mm 0 W/m2
00:47 51.8 °F /  11 °C 48.9 °F /  9.4 °C 29.8in /  1007.5hPa Calm     90% 0in /  0.0mm 0 W/m2
00:52 51.8 °F /  11 °C 48.9 °F /  9.4 °C 29.8in /  1007.5hPa Calm     90% 0in /  0.0mm 0 W/m2
00:57 51.8 °F /  11 °C 48.9 °F /  9.4 °C 29.8in /  1007.5hPa Calm     90% 0in /  0.0mm 0 W/m2
01:02 51.8 °F /  11 °C 48.9 °F /  9.4 °C 29.8in /  1007.5hPa Calm     90% 0in /  0.0mm 0 W/m2
01:07 51.6 °F /  10.9 °C 48.7 °F /  9.3 °C 29.7in /  1007.1hPa Calm     90% 0in /  0.0mm 0 W/m2
01:12 51.8 °F /  11 °C 48.7 °F /  9.3 °C 29.7in /  1007.1hPa Calm     89% 0in /  0.0mm 0 W/m2
01:17 52 °F /  11.1 °C 48.9 °F /  9.4 °C 29.7in /  1007.1hPa Calm     89% 0in /  0.0mm 0 W/m2
01:22 52 °F /  11.1 °C 48.9 °F /  9.4 °C 29.8in /  1007.5hPa Calm     89% 0in /  0.0mm 0 W/m2
01:27 52 °F /  11.1 °C 48.9 °F /  9.4 °C 29.7in /  1007.1hPa Calm     89% 0in /  0.0mm 0 W/m2
01:32 52 °F /  11.1 °C 48.9 °F /  9.4 °C 29.7in /  1007.1hPa Calm     89% 0in /  0.0mm 0 W/m2
01:37 51.8 °F /  11 °C 48.7 °F /  9.3 °C 29.7in /  1007.1hPa Calm     89% 0in /  0.0mm 0 W/m2
01:42 51.8 °F /  11 °C 48.7 °F /  9.3 °C 29.7in /  1007.1hPa Calm     89% 0in /  0.0mm 0 W/m2
01:47 51.6 °F /  10.9 °C 48.7 °F /  9.3 °C 29.7in /  1007.1hPa Calm     90% 0in /  0.0mm 0 W/m2
01:52 51.6 °F /  10.9 °C 48.6 °F /  9.2 °C 29.7in /  1007.1hPa Calm     89% 0in /  0.0mm 0 W/m2
01:57 51.4 °F /  10.8 °C 48.4 °F /  9.1 °C 29.7in /  1006.8hPa Calm     89% 0in /  0.0mm 0 W/m2
02:02 51.4 °F /  10.8 °C 48.4 °F /  9.1 °C 29.7in /  1007.1hPa Calm     89% 0in /  0.0mm 0 W/m2
02:07 51.3 °F /  10.7 °C 48.2 °F /  9 °C 29.7in /  1007.1hPa Calm     89% 0in /  0.0mm 0 W/m2
02:12 51.4 °F /  10.8 °C 48.4 °F /  9.1 °C 29.7in /  1006.8hPa ENE 2mph /  3.2km/h 3mph /  4.8km/h 89% 0in /  0.0mm 0 W/m2
02:17 51.6 °F /  10.9 °C 48.2 °F /  9 °C 29.7in /  1007.1hPa Calm   2mph /  3.2km/h 88% 0in /  0.0mm 0 W/m2
02:22 51.8 °F /  11 °C 48.4 °F /  9.1 °C 29.7in /  1006.8hPa Calm   3mph /  4.8km/h 88% 0in /  0.0mm 0 W/m2
02:28 51.6 °F /  10.9 °C 48.2 °F /  9 °C 29.7in /  1006.8hPa SE 0.9mph /  1.4km/h 1mph /  1.6km/h 88% 0in /  0.0mm 0 W/m2
02:33 51.6 °F /  10.9 °C 48.2 °F /  9 °C 29.7in /  1006.8hPa Calm     88% 0in /  0.0mm 0 W/m2
02:38 51.6 °F /  10.9 °C 48.2 °F /  9 °C 29.7in /  1006.8hPa Calm     88% 0in /  0.0mm 0 W/m2
02:43 51.4 °F /  10.8 °C 48.4 °F /  9.1 °C 29.7in /  1006.8hPa Calm     89% 0in /  0.0mm 0 W/m2
02:48 51.4 °F /  10.8 °C 48.4 °F /  9.1 °C 29.7in /  1006.8hPa Calm     89% 0in /  0.0mm 0 W/m2
02:53 51.3 °F /  10.7 °C 48.2 °F /  9 °C 29.7in /  1006.4hPa SE 0.9mph /  1.4km/h 1mph /  1.6km/h 89% 0in /  0.0mm 0 W/m2
02:58 51.3 °F /  10.7 °C 48.2 °F /  9 °C 29.7in /  1006.4hPa SE 0.9mph /  1.4km/h 2mph /  3.2km/h 89% 0in /  0.0mm 0 W/m2
03:03 51.3 °F /  10.7 °C 48.2 °F /  9 °C 29.7in /  1006.4hPa NNE 0.9mph /  1.4km/h 2mph /  3.2km/h 89% 0in /  0.0mm 0 W/m2
03:08 51.3 °F /  10.7 °C 48.2 °F /  9 °C 29.7in /  1006.4hPa Calm   3mph /  4.8km/h 89% 0in /  0.0mm 0 W/m2
03:13 51.4 °F /  10.8 °C 48.6 °F /  9.2 °C 29.7in /  1006.4hPa Calm     90% 0in /  0.0mm 0 W/m2
03:18 51.4 °F /  10.8 °C 48.6 °F /  9.2 °C 29.7in /  1006.4hPa Calm     90% 0in /  0.0mm 0 W/m2
03:23 51.4 °F /  10.8 °C 48.6 °F /  9.2 °C 29.7in /  1006.4hPa Calm     90% 0in /  0.0mm 0 W/m2
03:28 51.4 °F /  10.8 °C 48.6 °F /  9.2 °C 29.7in /  1006.4hPa Calm     90% 0in /  0.0mm 0 W/m2
03:33 51.4 °F /  10.8 °C 48.6 °F /  9.2 °C 29.7in /  1006.4hPa ENE 2mph /  3.2km/h 6mph /  9.7km/h 90% 0in /  0.0mm 0 W/m2
03:38 52.3 °F /  11.3 °C 48.6 °F /  9.2 °C 29.7in /  1006.1hPa ENE 2.9mph /  4.7km/h 5mph /  8km/h 87% 0in /  0.0mm 0 W/m2
03:43 52.9 °F /  11.6 °C 48.7 °F /  9.3 °C 29.7in /  1006.1hPa SE 0.9mph /  1.4km/h 6mph /  9.7km/h 86% 0in /  0.0mm 0 W/m2
03:48 53.1 °F /  11.7 °C 48.7 °F /  9.3 °C 29.7in /  1006.1hPa Calm   3mph /  4.8km/h 85% 0in /  0.0mm 0 W/m2
03:53 53.1 °F /  11.7 °C 48.7 °F /  9.3 °C 29.7in /  1006.4hPa NNE 0.9mph /  1.4km/h 3mph /  4.8km/h 85% 0in /  0.0mm 0 W/m2
03:58 53.1 °F /  11.7 °C 48.7 °F /  9.3 °C 29.7in /  1006.4hPa Calm   1mph /  1.6km/h 85% 0in /  0.0mm 0 W/m2
04:03 53.2 °F /  11.8 °C 48.9 °F /  9.4 °C 29.7in /  1006.1hPa ENE 0.9mph /  1.4km/h 2mph /  3.2km/h 85% 0in /  0.0mm 0 W/m2
04:08 53.2 °F /  11.8 °C 48.9 °F /  9.4 °C 29.7in /  1006.1hPa ENE 2.9mph /  4.7km/h 3mph /  4.8km/h 85% 0in /  0.0mm 0 W/m2
04:13 53.6 °F /  12 °C 48.9 °F /  9.4 °C 29.7in /  1006.1hPa East 0.9mph /  1.4km/h 3mph /  4.8km/h 84% 0in /  0.0mm 0 W/m2
04:18 53.8 °F /  12.1 °C 49.1 °F /  9.5 °C 29.7in /  1006.1hPa ENE 2mph /  3.2km/h 3mph /  4.8km/h 84% 0in /  0.0mm 0 W/m2
04:23 53.6 °F /  12 °C 49.3 °F /  9.6 °C 29.7in /  1005.8hPa Calm     85% 0in /  0.0mm 0 W/m2
04:28 53.2 °F /  11.8 °C 49.5 °F /  9.7 °C 29.7in /  1005.8hPa Calm   2mph /  3.2km/h 87% 0in /  0.0mm 0 W/m2
04:33 53.1 °F /  11.7 °C 49.3 °F /  9.6 °C 29.7in /  1005.8hPa NE 0.9mph /  1.4km/h 2mph /  3.2km/h 87% 0.01in /  0.2mm 0 W/m2
04:38 52.7 °F /  11.5 °C 49.3 °F /  9.6 °C 29.7in /  1005.8hPa NE 2mph /  3.2km/h 3mph /  4.8km/h 88% 0.01in /  0.2mm 0 W/m2
04:43 52.5 °F /  11.4 °C 49.5 °F /  9.7 °C 29.7in /  1005.4hPa Calm     89% 0.01in /  0.2mm 0 W/m2
04:48 52.3 °F /  11.3 °C 49.5 °F /  9.7 °C 29.7in /  1005.4hPa Calm   3mph /  4.8km/h 90% 0.01in /  0.2mm 0 W/m2
04:53 52.2 °F /  11.2 °C 49.3 °F /  9.6 °C 29.7in /  1005.1hPa Calm   1mph /  1.6km/h 90% 0.01in /  0.2mm 0 W/m2
04:58 52 °F /  11.1 °C 49.5 °F /  9.7 °C 29.7in /  1005.1hPa Calm     91% 0.01in /  0.2mm 0 W/m2
05:03 51.6 °F /  10.9 °C 49.1 °F /  9.5 °C 29.7in /  1005.1hPa Calm     91% 0.01in /  0.2mm 0 W/m2
05:08 51.4 °F /  10.8 °C 49.3 °F /  9.6 °C 29.7in /  1005.1hPa Calm     92% 0.01in /  0.2mm 0 W/m2
05:13 51.4 °F /  10.8 °C 49.3 °F /  9.6 °C 29.7in /  1005.1hPa Calm     92% 0.01in /  0.2mm 0 W/m2
05:18 51.3 °F /  10.7 °C 49.1 °F /  9.5 °C 29.7in /  1005.1hPa Calm     92% 0.02in /  0.5mm 0 W/m2
05:23 51.1 °F /  10.6 °C 49.1 °F /  9.5 °C 29.7in /  1004.7hPa Calm     93% 0.02in /  0.5mm 0 W/m2
05:28 51.1 °F /  10.6 °C 49.1 °F /  9.5 °C 29.7in /  1004.7hPa Calm     93% 0.02in /  0.5mm 0 W/m2
05:33 50.9 °F /  10.5 °C 48.9 °F /  9.4 °C 29.7in /  1004.7hPa Calm     93% 0.02in /  0.5mm 0 W/m2
05:38 50.9 °F /  10.5 °C 48.9 °F /  9.4 °C 29.7in /  1004.7hPa Calm     93% 0.02in /  0.5mm 0 W/m2
05:43 50.7 °F /  10.4 °C 49.1 °F /  9.5 °C 29.7in /  1004.7hPa Calm     94% 0.02in /  0.5mm 0 W/m2
05:48 50.7 °F /  10.4 °C 49.1 °F /  9.5 °C 29.7in /  1004.7hPa Calm   1mph /  1.6km/h 94% 0.02in /  0.5mm 0 W/m2
05:53 50.7 °F /  10.4 °C 49.1 °F /  9.5 °C 29.7in /  1004.7hPa Calm     94% 0.02in /  0.5mm 0 W/m2
05:58 50.5 °F /  10.3 °C 48.9 °F /  9.4 °C 29.7in /  1004.7hPa Calm   2mph /  3.2km/h 94% 0.02in /  0.5mm 0 W/m2
06:03 50.5 °F /  10.3 °C 48.9 °F /  9.4 °C 29.7in /  1004.7hPa SE 2mph /  3.2km/h 4mph /  6.4km/h 94% 0.02in /  0.5mm 0 W/m2
06:08 50.7 °F /  10.4 °C 49.1 °F /  9.5 °C 29.7in /  1004.7hPa Calm     94% 0.02in /  0.5mm 0 W/m2
06:13 50.7 °F /  10.4 °C 49.1 °F /  9.5 °C 29.7in /  1004.7hPa SSE 0.9mph /  1.4km/h 3mph /  4.8km/h 94% 0.02in /  0.5mm 0 W/m2
06:18 50.7 °F /  10.4 °C 49.1 °F /  9.5 °C 29.7in /  1004.7hPa Calm   1mph /  1.6km/h 94% 0.02in /  0.5mm 0 W/m2
06:23 50.5 °F /  10.3 °C 48.9 °F /  9.4 °C 29.7in /  1004.7hPa Calm   1mph /  1.6km/h 94% 0.02in /  0.5mm 0 W/m2
06:28 50.7 °F /  10.4 °C 49.1 °F /  9.5 °C 29.7in /  1004.7hPa South 0.9mph /  1.4km/h 2mph /  3.2km/h 94% 0.02in /  0.5mm 0 W/m2
06:33 50.5 °F /  10.3 °C 49.1 °F /  9.5 °C 29.7in /  1004.7hPa Calm   1mph /  1.6km/h 95% 0.01in /  0.2mm 0 W/m2
06:38 50.5 °F /  10.3 °C 49.1 °F /  9.5 °C 29.7in /  1004.4hPa Calm   2mph /  3.2km/h 95% 0.01in /  0.2mm 0 W/m2
06:43 50.5 °F /  10.3 °C 49.1 °F /  9.5 °C 29.7in /  1004.4hPa Calm   2mph /  3.2km/h 95% 0.02in /  0.5mm 0 W/m2
06:48 50.5 °F /  10.3 °C 49.1 °F /  9.5 °C 29.7in /  1004.4hPa East 2.9mph /  4.7km/h 3mph /  4.8km/h 95% 0.02in /  0.5mm 0 W/m2
06:53 50.7 °F /  10.4 °C 49.3 °F /  9.6 °C 29.7in /  1004.4hPa ENE 0.9mph /  1.4km/h 4mph /  6.4km/h 95% 0.02in /  0.5mm 0 W/m2
06:58 51.1 °F /  10.6 °C 49.6 °F /  9.8 °C 29.7in /  1004.1hPa ENE 2mph /  3.2km/h 3mph /  4.8km/h 95% 0.02in /  0.5mm 0 W/m2
07:03 51.4 °F /  10.8 °C 49.8 °F /  9.9 °C 29.7in /  1004.4hPa ENE 2.9mph /  4.7km/h 3mph /  4.8km/h 94% 0.02in /  0.5mm 0 W/m2
07:08 51.6 °F /  10.9 °C 49.6 °F /  9.8 °C 29.7in /  1004.1hPa ENE 2.9mph /  4.7km/h 6mph /  9.7km/h 93% 0.02in /  0.5mm 0 W/m2
07:13 52 °F /  11.1 °C 50 °F /  10 °C 29.7in /  1004.1hPa SE 2mph /  3.2km/h 6mph /  9.7km/h 93% 0.02in /  0.5mm 0 W/m2
07:18 52 °F /  11.1 °C 49.6 °F /  9.8 °C 29.7in /  1004.1hPa East 2.9mph /  4.7km/h 6mph /  9.7km/h 92% 0.02in /  0.5mm 0 W/m2
07:23 52.2 °F /  11.2 °C 49.8 °F /  9.9 °C 29.7in /  1004.1hPa East 6.9mph /  11.1km/h 8mph /  12.9km/h 92% 0.02in /  0.5mm 0 W/m2
07:28 52.3 °F /  11.3 °C 49.8 °F /  9.9 °C 29.7in /  1004.4hPa East 4.9mph /  7.9km/h 5mph /  8km/h 91% 0.02in /  0.5mm 0 W/m2
07:33 52.3 °F /  11.3 °C 49.8 °F /  9.9 °C 29.7in /  1004.4hPa East 2.9mph /  4.7km/h 9mph /  14.5km/h 91% 0.03in /  0.8mm 0 W/m2
07:38 52.2 °F /  11.2 °C 49.6 °F /  9.8 °C 29.7in /  1004.1hPa SE 2.9mph /  4.7km/h 3mph /  4.8km/h 91% 0.03in /  0.8mm 0 W/m2
07:43 52.2 °F /  11.2 °C 49.6 °F /  9.8 °C 29.7in /  1004.1hPa NE 4mph /  6.4km/h 9mph /  14.5km/h 91% 0.03in /  0.8mm 0 W/m2
07:48 52 °F /  11.1 °C 49.6 °F /  9.8 °C 29.7in /  1004.1hPa ESE 2mph /  3.2km/h 3mph /  4.8km/h 92% 0.03in /  0.8mm 0 W/m2
07:53 52 °F /  11.1 °C 49.6 °F /  9.8 °C 29.7in /  1004.1hPa East 0.9mph /  1.4km/h 2mph /  3.2km/h 92% 0.04in /  1.0mm 0 W/m2
07:58 51.8 °F /  11 °C 49.6 °F /  9.8 °C 29.7in /  1004.1hPa NE 2mph /  3.2km/h 5mph /  8km/h 92% 0.05in /  1.3mm 0 W/m2
08:03 51.6 °F /  10.9 °C 49.5 °F /  9.7 °C 29.7in /  1004.1hPa ENE 0.9mph /  1.4km/h 5mph /  8km/h 92% 0.06in /  1.5mm 0 W/m2
08:09 51.6 °F /  10.9 °C 49.6 °F /  9.8 °C 29.7in /  1004.1hPa ENE 2mph /  3.2km/h 5mph /  8km/h 93% 0.06in /  1.5mm 0 W/m2
08:14 51.4 °F /  10.8 °C 49.5 °F /  9.7 °C 29.7in /  1004.4hPa NE 2.9mph /  4.7km/h 4mph /  6.4km/h 93% 0.06in /  1.5mm 0 W/m2
08:19 51.4 °F /  10.8 °C 49.5 °F /  9.7 °C 29.7in /  1004.1hPa NE 0.9mph /  1.4km/h 4mph /  6.4km/h 93% 0.06in /  1.5mm 0 W/m2
08:24 51.4 °F /  10.8 °C 49.5 °F /  9.7 °C 29.7in /  1004.1hPa East 2mph /  3.2km/h 5mph /  8km/h 93% 0.06in /  1.5mm 0 W/m2
08:29 51.4 °F /  10.8 °C 49.5 °F /  9.7 °C 29.7in /  1004.1hPa ESE 2mph /  3.2km/h 5mph /  8km/h 93% 0.06in /  1.5mm 0 W/m2
08:34 51.6 °F /  10.9 °C 49.6 °F /  9.8 °C 29.7in /  1004.1hPa NE 0.9mph /  1.4km/h 6mph /  9.7km/h 93% 0.05in /  1.3mm 0 W/m2
08:39 51.6 °F /  10.9 °C 49.6 °F /  9.8 °C 29.7in /  1004.1hPa ENE 2mph /  3.2km/h 6mph /  9.7km/h 93% 0.05in /  1.3mm 0 W/m2
08:44 51.6 °F /  10.9 °C 49.5 °F /  9.7 °C 29.7in /  1004.1hPa East 2.9mph /  4.7km/h 4mph /  6.4km/h 92% 0.04in /  1.0mm 0 W/m2
08:49 51.6 °F /  10.9 °C 49.5 °F /  9.7 °C 29.7in /  1004.1hPa ENE 2mph /  3.2km/h 8mph /  12.9km/h 92% 0.04in /  1.0mm 0 W/m2
08:54 51.6 °F /  10.9 °C 49.5 °F /  9.7 °C 29.7in /  1004.1hPa East 2.9mph /  4.7km/h 7mph /  11.3km/h 92% 0.04in /  1.0mm 0 W/m2
08:59 51.4 °F /  10.8 °C 49.3 °F /  9.6 °C 29.7in /  1004.1hPa East 4mph /  6.4km/h 7mph /  11.3km/h 92% 0.03in /  0.8mm 0 W/m2
09:04 51.4 °F /  10.8 °C 49.3 °F /  9.6 °C 29.7in /  1004.1hPa NE 2.9mph /  4.7km/h 4mph /  6.4km/h 92% 0.02in /  0.5mm 5 W/m2
09:09 51.4 °F /  10.8 °C 49.5 °F /  9.7 °C 29.7in /  1004.1hPa NE 2mph /  3.2km/h 6mph /  9.7km/h 93% 0.02in /  0.5mm 0 W/m2
09:14 51.4 °F /  10.8 °C 49.5 °F /  9.7 °C 29.7in /  1004.1hPa East 0.9mph /  1.4km/h 3mph /  4.8km/h 93% 0.03in /  0.8mm 7 W/m2
09:19 51.3 °F /  10.7 °C 49.3 °F /  9.6 °C 29.7in /  1004.1hPa ENE 0.9mph /  1.4km/h 6mph /  9.7km/h 93% 0.02in /  0.5mm 5 W/m2
09:24 51.3 °F /  10.7 °C 49.3 °F /  9.6 °C 29.7in /  1004.1hPa East 0.9mph /  1.4km/h 3mph /  4.8km/h 93% 0.02in /  0.5mm 7 W/m2
09:29 51.3 °F /  10.7 °C 49.3 °F /  9.6 °C 29.7in /  1004.1hPa Calm     93% 0.02in /  0.5mm 7 W/m2
09:34 51.3 °F /  10.7 °C 49.6 °F /  9.8 °C 29.7in /  1004.1hPa Calm   3mph /  4.8km/h 94% 0.02in /  0.5mm 11 W/m2
09:39 51.3 °F /  10.7 °C 49.6 °F /  9.8 °C 29.7in /  1004.1hPa Calm     94% 0.03in /  0.8mm 9 W/m2
09:44 51.3 °F /  10.7 °C 49.6 °F /  9.8 °C 29.7in /  1004.1hPa East 0.9mph /  1.4km/h 1mph /  1.6km/h 94% 0.03in /  0.8mm 9 W/m2
09:49 51.3 °F /  10.7 °C 49.6 °F /  9.8 °C 29.7in /  1004.1hPa Calm   3mph /  4.8km/h 94% 0.04in /  1.0mm 14 W/m2
09:54 51.3 °F /  10.7 °C 49.6 °F /  9.8 °C 29.7in /  1004.1hPa East 0.9mph /  1.4km/h 1mph /  1.6km/h 94% 0.03in /  0.8mm 21 W/m2
09:59 51.1 °F /  10.6 °C 49.6 °F /  9.8 °C 29.7in /  1004.1hPa Calm   3mph /  4.8km/h 95% 0.03in /  0.8mm 19 W/m2
10:04 51.1 °F /  10.6 °C 49.5 °F /  9.7 °C 29.7in /  1004.1hPa East 2mph /  3.2km/h 3mph /  4.8km/h 94% 0.03in /  0.8mm 18 W/m2
10:09 51.1 °F /  10.6 °C 49.6 °F /  9.8 °C 29.7in /  1004.1hPa Calm   1mph /  1.6km/h 95% 0.04in /  1.0mm 12 W/m2
10:14 51.1 °F /  10.6 °C 49.6 °F /  9.8 °C 29.7in /  1004.1hPa Calm   3mph /  4.8km/h 95% 0.04in /  1.0mm 7 W/m2
10:19 51.1 °F /  10.6 °C 49.6 °F /  9.8 °C 29.7in /  1004.1hPa Calm     95% 0.05in /  1.3mm 9 W/m2
10:24 51.1 °F /  10.6 °C 49.6 °F /  9.8 °C 29.7in /  1004.1hPa Calm     95% 0.06in /  1.5mm 12 W/m2
10:29 51.1 °F /  10.6 °C 49.6 °F /  9.8 °C 29.7in /  1004.1hPa Calm   2mph /  3.2km/h 95% 0.06in /  1.5mm 11 W/m2
10:34 51.1 °F /  10.6 °C 49.6 °F /  9.8 °C 29.7in /  1004.1hPa Calm     95% 0.06in /  1.5mm 11 W/m2
10:39 51.1 °F /  10.6 °C 49.6 °F /  9.8 °C 29.6in /  1003.7hPa Calm     95% 0.06in /  1.5mm 19 W/m2
10:44 51.1 °F /  10.6 °C 49.6 °F /  9.8 °C 29.6in /  1003.7hPa East 0.9mph /  1.4km/h 2mph /  3.2km/h 95% 0.06in /  1.5mm 19 W/m2
10:49 51.1 °F /  10.6 °C 49.6 °F /  9.8 °C 29.6in /  1003.7hPa NE 0.9mph /  1.4km/h 2mph /  3.2km/h 95% 0.06in /  1.5mm 14 W/m2
10:54 51.1 °F /  10.6 °C 50 °F /  10 °C 29.6in /  1003.7hPa NE 2mph /  3.2km/h 2mph /  3.2km/h 96% 0.07in /  1.8mm 16 W/m2
10:59 51.3 °F /  10.7 °C 50.2 °F /  10.1 °C 29.6in /  1003.7hPa ENE 0.9mph /  1.4km/h 3mph /  4.8km/h 96% 0.08in /  2.0mm 18 W/m2
11:04 51.3 °F /  10.7 °C 50.2 °F /  10.1 °C 29.6in /  1003.7hPa ENE 0.9mph /  1.4km/h 4mph /  6.4km/h 96% 0.08in /  2.0mm 16 W/m2
11:09 51.3 °F /  10.7 °C 50.2 °F /  10.1 °C 29.6in /  1003.7hPa East 2.9mph /  4.7km/h 3mph /  4.8km/h 96% 0.09in /  2.3mm 16 W/m2
11:14 51.3 °F /  10.7 °C 50.2 °F /  10.1 °C 29.6in /  1003.7hPa NE 0.9mph /  1.4km/h 6mph /  9.7km/h 96% 0.09in /  2.3mm 18 W/m2
11:19 51.3 °F /  10.7 °C 50.2 °F /  10.1 °C 29.6in /  1003.7hPa ENE 2mph /  3.2km/h 3mph /  4.8km/h 96% 0.09in /  2.3mm 19 W/m2
11:24 51.3 °F /  10.7 °C 50.2 °F /  10.1 °C 29.6in /  1003.4hPa Calm   6mph /  9.7km/h 96% 0.09in /  2.3mm 23 W/m2
11:29 51.3 °F /  10.7 °C 50.2 °F /  10.1 °C 29.6in /  1003.7hPa East 2.9mph /  4.7km/h 7mph /  11.3km/h 96% 0.1in /  2.5mm 25 W/m2
11:34 51.3 °F /  10.7 °C 50.2 °F /  10.1 °C 29.6in /  1003.4hPa NE 2mph /  3.2km/h 4mph /  6.4km/h 96% 0.1in /  2.5mm 26 W/m2
11:39 51.3 °F /  10.7 °C 50.2 °F /  10.1 °C 29.6in /  1003.4hPa ENE 2mph /  3.2km/h 7mph /  11.3km/h 96% 0.11in /  2.8mm 25 W/m2
11:44 51.3 °F /  10.7 °C 50.2 °F /  10.1 °C 29.6in /  1003.4hPa NE 2mph /  3.2km/h 2mph /  3.2km/h 96% 0.12in /  3.0mm 30 W/m2
11:49 51.3 °F /  10.7 °C 50.2 °F /  10.1 °C 29.6in /  1003.7hPa East 4mph /  6.4km/h 4mph /  6.4km/h 96% 0.11in /  2.8mm 26 W/m2
11:54 51.3 °F /  10.7 °C 50.2 °F /  10.1 °C 29.6in /  1003.7hPa East 2mph /  3.2km/h 3mph /  4.8km/h 96% 0.11in /  2.8mm 26 W/m2
11:59 51.3 °F /  10.7 °C 50.2 °F /  10.1 °C 29.6in /  1003.7hPa East 0.9mph /  1.4km/h 2mph /  3.2km/h 96% 0.1in /  2.5mm 35 W/m2
12:04 51.3 °F /  10.7 °C 50.2 °F /  10.1 °C 29.6in /  1003.7hPa East 0.9mph /  1.4km/h 3mph /  4.8km/h 96% 0.1in /  2.5mm 30 W/m2
12:09 51.3 °F /  10.7 °C 50.2 °F /  10.1 °C 29.6in /  1003.7hPa Calm     96% 0.09in /  2.3mm 23 W/m2
12:14 51.4 °F /  10.8 °C 50.4 °F /  10.2 °C 29.6in /  1003.7hPa Calm   2mph /  3.2km/h 96% 0.08in /  2.0mm 18 W/m2
12:19 51.4 °F /  10.8 °C 50.4 °F /  10.2 °C 29.6in /  1003.7hPa East 2mph /  3.2km/h 3mph /  4.8km/h 96% 0.09in /  2.3mm 19 W/m2
12:24 51.4 °F /  10.8 °C 50.4 °F /  10.2 °C 29.6in /  1003.7hPa Calm   1mph /  1.6km/h 96% 0.08in /  2.0mm 25 W/m2
12:29 51.4 °F /  10.8 °C 50.4 °F /  10.2 °C 29.6in /  1003.7hPa Calm   3mph /  4.8km/h 96% 0.09in /  2.3mm 21 W/m2
12:34 51.4 °F /  10.8 °C 50.4 °F /  10.2 °C 29.6in /  1003.7hPa Calm   1mph /  1.6km/h 96% 0.09in /  2.3mm 21 W/m2
12:39 51.4 °F /  10.8 °C 50.4 °F /  10.2 °C 29.6in /  1003.7hPa Calm     96% 0.08in /  2.0mm 25 W/m2
12:44 51.4 °F /  10.8 °C 50.4 °F /  10.2 °C 29.6in /  1003.4hPa ENE 0.9mph /  1.4km/h 2mph /  3.2km/h 96% 0.09in /  2.3mm 25 W/m2
12:49 51.4 °F /  10.8 °C 50.4 °F /  10.2 °C 29.6in /  1003.7hPa Calm     96% 0.09in /  2.3mm 19 W/m2
12:54 51.4 °F /  10.8 °C 50.4 °F /  10.2 °C 29.6in /  1003.4hPa Calm     96% 0.09in /  2.3mm 19 W/m2
12:59 51.4 °F /  10.8 °C 50.4 °F /  10.2 °C 29.6in /  1003.4hPa Calm     96% 0.09in /  2.3mm 14 W/m2
13:04 51.4 °F /  10.8 °C 50.4 °F /  10.2 °C 29.6in /  1003.4hPa ENE 0.9mph /  1.4km/h 2mph /  3.2km/h 96% 0.09in /  2.3mm 14 W/m2
13:09 51.3 °F /  10.7 °C 50.2 °F /  10.1 °C 29.6in /  1003.4hPa Calm   1mph /  1.6km/h 96% 0.08in /  2.0mm 16 W/m2
13:14 51.3 °F /  10.7 °C 50.2 °F /  10.1 °C 29.6in /  1003.4hPa East 0.9mph /  1.4km/h 2mph /  3.2km/h 96% 0.08in /  2.0mm 18 W/m2
13:19 51.3 °F /  10.7 °C 50.2 °F /  10.1 °C 29.6in /  1003.0hPa ESE 2mph /  3.2km/h 3mph /  4.8km/h 96% 0.07in /  1.8mm 25 W/m2
13:24 51.3 °F /  10.7 °C 50.2 °F /  10.1 °C 29.6in /  1003.0hPa East 0.9mph /  1.4km/h 2mph /  3.2km/h 96% 0.06in /  1.5mm 33 W/m2
13:29 51.3 °F /  10.7 °C 50.2 °F /  10.1 °C 29.6in /  1003.0hPa ENE 0.9mph /  1.4km/h 2mph /  3.2km/h 96% 0.06in /  1.5mm 30 W/m2
13:34 51.4 °F /  10.8 °C 50.4 °F /  10.2 °C 29.6in /  1003.0hPa ENE 0.9mph /  1.4km/h 2mph /  3.2km/h 96% 0.05in /  1.3mm 46 W/m2
13:39 51.4 °F /  10.8 °C 50.4 °F /  10.2 °C 29.6in /  1003.0hPa East 0.9mph /  1.4km/h 3mph /  4.8km/h 96% 0.04in /  1.0mm 42 W/m2
13:44 51.4 °F /  10.8 °C 50.4 °F /  10.2 °C 29.6in /  1002.7hPa East 4mph /  6.4km/h 5mph /  8km/h 96% 0.02in /  0.5mm 42 W/m2
13:49 51.4 °F /  10.8 °C 50.4 °F /  10.2 °C 29.6in /  1003.0hPa SE 0.9mph /  1.4km/h 5mph /  8km/h 96% 0.02in /  0.5mm 35 W/m2
13:54 51.4 °F /  10.8 °C 50.4 °F /  10.2 °C 29.6in /  1002.7hPa ENE 2mph /  3.2km/h 4mph /  6.4km/h 96% 0.01in /  0.2mm 40 W/m2
13:59 51.4 °F /  10.8 °C 50.4 °F /  10.2 °C 29.6in /  1002.7hPa East 0.9mph /  1.4km/h 4mph /  6.4km/h 96% 0.01in /  0.2mm 42 W/m2
14:04 51.4 °F /  10.8 °C 50.4 °F /  10.2 °C 29.6in /  1002.7hPa ESE 4mph /  6.4km/h 6mph /  9.7km/h 96% 0.01in /  0.2mm 28 W/m2
14:09 51.4 °F /  10.8 °C 50.4 °F /  10.2 °C 29.6in /  1002.7hPa East 2mph /  3.2km/h 5mph /  8km/h 96% 0.01in /  0.2mm 33 W/m2
14:14 51.4 °F /  10.8 °C 50.4 °F /  10.2 °C 29.6in /  1002.7hPa ENE 2.9mph /  4.7km/h 5mph /  8km/h 96% 0.01in /  0.2mm 46 W/m2
14:19 51.6 °F /  10.9 °C 50.5 °F /  10.3 °C 29.6in /  1002.7hPa East 2.9mph /  4.7km/h 3mph /  4.8km/h 96% 0in /  0.0mm 35 W/m2
14:24 51.6 °F /  10.9 °C 50.5 °F /  10.3 °C 29.6in /  1002.7hPa East 0.9mph /  1.4km/h 2mph /  3.2km/h 96% 0in /  0.0mm 46 W/m2
14:29 51.6 °F /  10.9 °C 50.5 °F /  10.3 °C 29.6in /  1002.7hPa SE 4mph /  6.4km/h 7mph /  11.3km/h 96% 0in /  0.0mm 33 W/m2
14:34 51.8 °F /  11 °C 50.7 °F /  10.4 °C 29.6in /  1002.7hPa South 0.9mph /  1.4km/h 6mph /  9.7km/h 96% 0in /  0.0mm 33 W/m2
14:39 52 °F /  11.1 °C 50.9 °F /  10.5 °C 29.6in /  1002.7hPa ESE 6mph /  9.7km/h 6mph /  9.7km/h 96% 0in /  0.0mm 30 W/m2
14:44 52 °F /  11.1 °C 50.9 °F /  10.5 °C 29.6in /  1002.7hPa East 4.9mph /  7.9km/h 5mph /  8km/h 96% 0in /  0.0mm 46 W/m2
14:49 52.2 °F /  11.2 °C 51.1 °F /  10.6 °C 29.6in /  1002.4hPa ESE 4mph /  6.4km/h 8mph /  12.9km/h 96% 0in /  0.0mm 69 W/m2
14:54 52.2 °F /  11.2 °C 51.1 °F /  10.6 °C 29.6in /  1002.4hPa NNE 2mph /  3.2km/h 9mph /  14.5km/h 96% 0in /  0.0mm 46 W/m2
14:59 52.2 °F /  11.2 °C 51.1 °F /  10.6 °C 29.6in /  1002.4hPa ENE 4mph /  6.4km/h 7mph /  11.3km/h 96% 0in /  0.0mm 54 W/m2
15:04 52.2 °F /  11.2 °C 51.1 °F /  10.6 °C 29.6in /  1002.4hPa ESE 2.9mph /  4.7km/h 9mph /  14.5km/h 96% 0in /  0.0mm 69 W/m2
15:09 52.3 °F /  11.3 °C 51.3 °F /  10.7 °C 29.6in /  1002.0hPa ENE 0.9mph /  1.4km/h 5mph /  8km/h 96% 0in /  0.0mm 70 W/m2
15:14 52.3 °F /  11.3 °C 51.3 °F /  10.7 °C 29.6in /  1002.0hPa SE 2.9mph /  4.7km/h 6mph /  9.7km/h 96% 0in /  0.0mm 65 W/m2
15:19 52.5 °F /  11.4 °C 51.1 °F /  10.6 °C 29.6in /  1002.0hPa East 2.9mph /  4.7km/h 6mph /  9.7km/h 95% 0in /  0.0mm 39 W/m2
15:24 52.5 °F /  11.4 °C 51.1 °F /  10.6 °C 29.6in /  1002.0hPa East 4.9mph /  7.9km/h 8mph /  12.9km/h 95% 0in /  0.0mm 60 W/m2
15:29 52.5 °F /  11.4 °C 51.1 °F /  10.6 °C 29.6in /  1002.0hPa East 4.9mph /  7.9km/h 7mph /  11.3km/h 95% 0in /  0.0mm 120 W/m2
15:34 52.9 °F /  11.6 °C 51.8 °F /  11 °C 29.6in /  1002.0hPa ENE 0.9mph /  1.4km/h 5mph /  8km/h 96% 0in /  0.0mm 35 W/m2
15:39 52.9 °F /  11.6 °C 51.4 °F /  10.8 °C 29.6in /  1002.0hPa ENE 2mph /  3.2km/h 6mph /  9.7km/h 95% 0in /  0.0mm 35 W/m2
15:44 52.9 °F /  11.6 °C 51.4 °F /  10.8 °C 29.6in /  1002.0hPa East 4mph /  6.4km/h 6mph /  9.7km/h 95% 0in /  0.0mm 49 W/m2
15:49 53.1 °F /  11.7 °C 51.6 °F /  10.9 °C 29.6in /  1002.0hPa ESE 2mph /  3.2km/h 4mph /  6.4km/h 95% 0in /  0.0mm 39 W/m2
15:54 53.1 °F /  11.7 °C 51.6 °F /  10.9 °C 29.6in /  1002.0hPa ENE 2mph /  3.2km/h 7mph /  11.3km/h 95% 0in /  0.0mm 53 W/m2
15:59 53.1 °F /  11.7 °C 51.6 °F /  10.9 °C 29.6in /  1002.0hPa ENE 2.9mph /  4.7km/h 7mph /  11.3km/h 95% 0in /  0.0mm 40 W/m2
16:05 53.2 °F /  11.8 °C 51.8 °F /  11 °C 29.6in /  1002.0hPa ENE 4mph /  6.4km/h 7mph /  11.3km/h 95% 0in /  0.0mm 46 W/m2
16:10 53.2 °F /  11.8 °C 51.8 °F /  11 °C 29.6in /  1002.0hPa ENE 2.9mph /  4.7km/h 6mph /  9.7km/h 95% 0in /  0.0mm 42 W/m2
16:15 53.4 °F /  11.9 °C 52 °F /  11.1 °C 29.6in /  1002.0hPa ENE 2mph /  3.2km/h 3mph /  4.8km/h 95% 0in /  0.0mm 39 W/m2
16:20 53.4 °F /  11.9 °C 52 °F /  11.1 °C 29.6in /  1002.0hPa NE 4mph /  6.4km/h 5mph /  8km/h 95% 0in /  0.0mm 49 W/m2
16:25 53.8 °F /  12.1 °C 52.3 °F /  11.3 °C 29.6in /  1002.0hPa ESE 2mph /  3.2km/h 4mph /  6.4km/h 95% 0in /  0.0mm 46 W/m2
16:30 53.8 °F /  12.1 °C 52.3 °F /  11.3 °C 29.6in /  1002.4hPa Calm   3mph /  4.8km/h 95% 0in /  0.0mm 39 W/m2
16:35 54 °F /  12.2 °C 52.5 °F /  11.4 °C 29.6in /  1002.4hPa ENE 2.9mph /  4.7km/h 4mph /  6.4km/h 95% 0in /  0.0mm 39 W/m2
16:40 54.1 °F /  12.3 °C 52.5 °F /  11.4 °C 29.6in /  1002.4hPa NNW 0.9mph /  1.4km/h 2mph /  3.2km/h 94% 0in /  0.0mm 54 W/m2
16:45 54.3 °F /  12.4 °C 52.9 °F /  11.6 °C 29.6in /  1002.4hPa Calm   3mph /  4.8km/h 95% 0in /  0.0mm 28 W/m2
16:50 54.5 °F /  12.5 °C 52.9 °F /  11.6 °C 29.6in /  1002.4hPa ESE 0.9mph /  1.4km/h 4mph /  6.4km/h 94% 0in /  0.0mm 40 W/m2
16:55 54.7 °F /  12.6 °C 53.1 °F /  11.7 °C 29.6in /  1002.4hPa NNE 0.9mph /  1.4km/h 4mph /  6.4km/h 94% 0in /  0.0mm 33 W/m2
17:00 54.9 °F /  12.7 °C 53.2 °F /  11.8 °C 29.6in /  1002.4hPa NNE 2mph /  3.2km/h 3mph /  4.8km/h 94% 0in /  0.0mm 51 W/m2
17:05 55 °F /  12.8 °C 53.4 °F /  11.9 °C 29.6in /  1002.4hPa ENE 0.9mph /  1.4km/h 3mph /  4.8km/h 94% 0in /  0.0mm 56 W/m2
17:10 55 °F /  12.8 °C 53.1 °F /  11.7 °C 29.6in /  1002.4hPa North 4mph /  6.4km/h 4mph /  6.4km/h 93% 0in /  0.0mm 40 W/m2
17:15 55.2 °F /  12.9 °C 53.2 °F /  11.8 °C 29.6in /  1002.4hPa ENE 2.9mph /  4.7km/h 4mph /  6.4km/h 93% 0in /  0.0mm 25 W/m2
17:20 55.4 °F /  13 °C 53.4 °F /  11.9 °C 29.6in /  1002.4hPa NNE 0.9mph /  1.4km/h 5mph /  8km/h 93% 0in /  0.0mm 23 W/m2
17:25 55.6 °F /  13.1 °C 53.6 °F /  12 °C 29.6in /  1002.4hPa Calm   3mph /  4.8km/h 93% 0in /  0.0mm 5 W/m2
17:30 55.6 °F /  13.1 °C 53.6 °F /  12 °C 29.6in /  1002.7hPa NNE 2.9mph /  4.7km/h 5mph /  8km/h 93% 0in /  0.0mm 11 W/m2
17:35 55.6 °F /  13.1 °C 53.2 °F /  11.8 °C 29.6in /  1002.7hPa NE 2mph /  3.2km/h 4mph /  6.4km/h 92% 0in /  0.0mm 11 W/m2
17:40 55.6 °F /  13.1 °C 53.2 °F /  11.8 °C 29.6in /  1002.7hPa NE 0.9mph /  1.4km/h 3mph /  4.8km/h 92% 0in /  0.0mm 19 W/m2
17:45 55.6 °F /  13.1 °C 53.2 °F /  11.8 °C 29.6in /  1002.7hPa NNW 0.9mph /  1.4km/h 2mph /  3.2km/h 92% 0in /  0.0mm 16 W/m2
17:50 55.8 °F /  13.2 °C 53.4 °F /  11.9 °C 29.6in /  1002.7hPa NNE 4mph /  6.4km/h 7mph /  11.3km/h 92% 0in /  0.0mm 12 W/m2
17:55 55.8 °F /  13.2 °C 53.4 °F /  11.9 °C 29.6in /  1002.7hPa ENE 0.9mph /  1.4km/h 7mph /  11.3km/h 92% 0in /  0.0mm 11 W/m2
18:00 55.8 °F /  13.2 °C 53.4 °F /  11.9 °C 29.6in /  1002.7hPa NE 0.9mph /  1.4km/h 3mph /  4.8km/h 92% 0in /  0.0mm 7 W/m2
18:05 55.8 °F /  13.2 °C 53.4 °F /  11.9 °C 29.6in /  1003.0hPa NE 2mph /  3.2km/h 4mph /  6.4km/h 92% 0in /  0.0mm 0 W/m2
18:10 55.8 °F /  13.2 °C 53.4 °F /  11.9 °C 29.6in /  1003.0hPa NW 6mph /  9.7km/h 6mph /  9.7km/h 92% 0in /  0.0mm 0 W/m2
18:15 55.8 °F /  13.2 °C 53.4 °F /  11.9 °C 29.6in /  1003.0hPa NW 2mph /  3.2km/h 4mph /  6.4km/h 92% 0in /  0.0mm 0 W/m2
18:20 55.8 °F /  13.2 °C 53.4 °F /  11.9 °C 29.6in /  1003.0hPa NNE 2mph /  3.2km/h 4mph /  6.4km/h 92% 0in /  0.0mm 0 W/m2
18:25 55.8 °F /  13.2 °C 53.4 °F /  11.9 °C 29.6in /  1003.0hPa NNW 2mph /  3.2km/h 4mph /  6.4km/h 92% 0in /  0.0mm 0 W/m2
18:30 55.8 °F /  13.2 °C 53.4 °F /  11.9 °C 29.6in /  1003.0hPa ENE 0.9mph /  1.4km/h 3mph /  4.8km/h 92% 0in /  0.0mm 0 W/m2
18:35 55.8 °F /  13.2 °C 53.8 °F /  12.1 °C 29.6in /  1003.0hPa North 0.9mph /  1.4km/h 5mph /  8km/h 93% 0in /  0.0mm 0 W/m2
18:40 55.8 °F /  13.2 °C 53.8 °F /  12.1 °C 29.6in /  1003.4hPa North 2mph /  3.2km/h 5mph /  8km/h 93% 0in /  0.0mm 0 W/m2
18:45 55.8 °F /  13.2 °C 53.8 °F /  12.1 °C 29.6in /  1003.4hPa NNE 2mph /  3.2km/h 3mph /  4.8km/h 93% 0in /  0.0mm 0 W/m2
18:50 55.8 °F /  13.2 °C 53.8 °F /  12.1 °C 29.6in /  1003.4hPa NE 2.9mph /  4.7km/h 3mph /  4.8km/h 93% 0in /  0.0mm 0 W/m2
18:55 55.8 °F /  13.2 °C 53.8 °F /  12.1 °C 29.6in /  1003.4hPa NW 0.9mph /  1.4km/h 11mph /  17.7km/h 93% 0.01in /  0.2mm 0 W/m2
19:00 55.8 °F /  13.2 °C 53.8 °F /  12.1 °C 29.6in /  1003.7hPa Calm   7mph /  11.3km/h 93% 0.02in /  0.5mm 0 W/m2
19:05 55.6 °F /  13.1 °C 53.6 °F /  12 °C 29.6in /  1003.7hPa WNW 0.9mph /  1.4km/h 11mph /  17.7km/h 93% 0.02in /  0.5mm 0 W/m2
19:10 55.6 °F /  13.1 °C 54 °F /  12.2 °C 29.6in /  1003.7hPa NNE 2mph /  3.2km/h 4mph /  6.4km/h 94% 0.02in /  0.5mm 0 W/m2
19:15 55.8 °F /  13.2 °C 54.1 °F /  12.3 °C 29.6in /  1003.7hPa SSW 0.9mph /  1.4km/h 3mph /  4.8km/h 94% 0.02in /  0.5mm 0 W/m2
19:20 55.6 °F /  13.1 °C 54 °F /  12.2 °C 29.6in /  1003.7hPa West 2mph /  3.2km/h 3mph /  4.8km/h 94% 0.02in /  0.5mm 0 W/m2
19:25 55.6 °F /  13.1 °C 54 °F /  12.2 °C 29.6in /  1003.7hPa NE 2mph /  3.2km/h 5mph /  8km/h 94% 0.02in /  0.5mm 0 W/m2
19:30 55.6 °F /  13.1 °C 54 °F /  12.2 °C 29.7in /  1004.1hPa NW 0.9mph /  1.4km/h 3mph /  4.8km/h 94% 0.02in /  0.5mm 0 W/m2
19:35 55.8 °F /  13.2 °C 54.1 °F /  12.3 °C 29.7in /  1004.1hPa Calm   5mph /  8km/h 94% 0.02in /  0.5mm 0 W/m2
19:40 55.6 °F /  13.1 °C 54 °F /  12.2 °C 29.7in /  1004.1hPa Calm   2mph /  3.2km/h 94% 0.02in /  0.5mm 0 W/m2
19:45 55.6 °F /  13.1 °C 54 °F /  12.2 °C 29.7in /  1004.1hPa NW 2mph /  3.2km/h 3mph /  4.8km/h 94% 0.02in /  0.5mm 0 W/m2
19:50 55.6 °F /  13.1 °C 54 °F /  12.2 °C 29.7in /  1004.1hPa North 2mph /  3.2km/h 4mph /  6.4km/h 94% 0.02in /  0.5mm 0 W/m2
19:55 55.6 °F /  13.1 °C 54 °F /  12.2 °C 29.7in /  1004.1hPa NNE 2.9mph /  4.7km/h 3mph /  4.8km/h 94% 0.01in /  0.2mm 0 W/m2
20:00 55.6 °F /  13.1 °C 54 °F /  12.2 °C 29.7in /  1004.4hPa NE 2mph /  3.2km/h 2mph /  3.2km/h 94% 0in /  0.0mm 0 W/m2
20:05 55.6 °F /  13.1 °C 54 °F /  12.2 °C 29.7in /  1004.4hPa Calm   3mph /  4.8km/h 94% 0in /  0.0mm 0 W/m2
20:10 55.6 °F /  13.1 °C 54 °F /  12.2 °C 29.7in /  1004.4hPa East 0.9mph /  1.4km/h 3mph /  4.8km/h 94% 0in /  0.0mm 0 W/m2
20:15 55.6 °F /  13.1 °C 54 °F /  12.2 °C 29.7in /  1004.4hPa North 2mph /  3.2km/h 2mph /  3.2km/h 94% 0in /  0.0mm 0 W/m2
20:20 55.6 °F /  13.1 °C 54 °F /  12.2 °C 29.7in /  1004.7hPa Calm   2mph /  3.2km/h 94% 0in /  0.0mm 0 W/m2
20:25 55.6 °F /  13.1 °C 54 °F /  12.2 °C 29.7in /  1004.7hPa NNE 2mph /  3.2km/h 3mph /  4.8km/h 94% 0in /  0.0mm 0 W/m2
20:30 55.6 °F /  13.1 °C 54 °F /  12.2 °C 29.7in /  1004.7hPa NE 2.9mph /  4.7km/h 3mph /  4.8km/h 94% 0in /  0.0mm 0 W/m2
20:35 55.6 °F /  13.1 °C 54 °F /  12.2 °C 29.7in /  1004.7hPa Calm   2mph /  3.2km/h 94% 0in /  0.0mm 0 W/m2
20:40 55.6 °F /  13.1 °C 54 °F /  12.2 °C 29.7in /  1004.7hPa Calm   1mph /  1.6km/h 94% 0in /  0.0mm 0 W/m2
20:45 55.6 °F /  13.1 °C 54 °F /  12.2 °C 29.7in /  1004.7hPa East 0.9mph /  1.4km/h 4mph /  6.4km/h 94% 0in /  0.0mm 0 W/m2
20:50 55.8 °F /  13.2 °C 54.1 °F /  12.3 °C 29.7in /  1004.7hPa Calm   2mph /  3.2km/h 94% 0in /  0.0mm 0 W/m2
20:55 55.9 °F /  13.3 °C 54.3 °F /  12.4 °C 29.7in /  1004.7hPa Calm   4mph /  6.4km/h 94% 0in /  0.0mm 0 W/m2
21:01 55.9 °F /  13.3 °C 54.3 °F /  12.4 °C 29.7in /  1004.7hPa ENE 2mph /  3.2km/h 2mph /  3.2km/h 94% 0in /  0.0mm 0 W/m2
21:06 55.9 °F /  13.3 °C 54.3 °F /  12.4 °C 29.7in /  1004.7hPa NNW 2mph /  3.2km/h 2mph /  3.2km/h 94% 0in /  0.0mm 0 W/m2
21:11 56.1 °F /  13.4 °C 54.5 °F /  12.5 °C 29.7in /  1005.1hPa ENE 0.9mph /  1.4km/h 5mph /  8km/h 94% 0in /  0.0mm 0 W/m2
21:16 56.1 °F /  13.4 °C 54.5 °F /  12.5 °C 29.7in /  1005.1hPa East 0.9mph /  1.4km/h 1mph /  1.6km/h 94% 0in /  0.0mm 0 W/m2
21:21 56.1 °F /  13.4 °C 54.5 °F /  12.5 °C 29.7in /  1005.1hPa NE 0.9mph /  1.4km/h 5mph /  8km/h 94% 0in /  0.0mm 0 W/m2
21:26 56.1 °F /  13.4 °C 54.5 °F /  12.5 °C 29.7in /  1005.1hPa ENE 4mph /  6.4km/h 4mph /  6.4km/h 94% 0in /  0.0mm 0 W/m2
21:31 55.9 °F /  13.3 °C 54.3 °F /  12.4 °C 29.7in /  1005.1hPa ENE 2mph /  3.2km/h 4mph /  6.4km/h 94% 0in /  0.0mm 0 W/m2
21:36 55.9 °F /  13.3 °C 54.3 °F /  12.4 °C 29.7in /  1005.1hPa ENE 2mph /  3.2km/h 4mph /  6.4km/h 94% 0in /  0.0mm 0 W/m2
21:41 55.9 °F /  13.3 °C 54.3 °F /  12.4 °C 29.7in /  1005.1hPa ENE 2.9mph /  4.7km/h 5mph /  8km/h 94% 0in /  0.0mm 0 W/m2
21:46 55.9 °F /  13.3 °C 54.3 °F /  12.4 °C 29.7in /  1005.4hPa ENE 2.9mph /  4.7km/h 3mph /  4.8km/h 94% 0in /  0.0mm 0 W/m2
21:51 55.9 °F /  13.3 °C 54.3 °F /  12.4 °C 29.7in /  1005.4hPa NNE 0.9mph /  1.4km/h 3mph /  4.8km/h 94% 0in /  0.0mm 0 W/m2
21:56 56.3 °F /  13.5 °C 54.7 °F /  12.6 °C 29.7in /  1005.4hPa ENE 2mph /  3.2km/h 4mph /  6.4km/h 94% 0in /  0.0mm 0 W/m2
22:01 56.5 °F /  13.6 °C 54.9 °F /  12.7 °C 29.7in /  1005.4hPa Calm   2mph /  3.2km/h 94% 0in /  0.0mm 0 W/m2
22:06 56.7 °F /  13.7 °C 55 °F /  12.8 °C 29.7in /  1005.8hPa NW 0.9mph /  1.4km/h 5mph /  8km/h 94% 0in /  0.0mm 0 W/m2
22:11 56.7 °F /  13.7 °C 55 °F /  12.8 °C 29.7in /  1005.4hPa ENE 2.9mph /  4.7km/h 4mph /  6.4km/h 94% 0in /  0.0mm 0 W/m2
22:16 56.8 °F /  13.8 °C 55.2 °F /  12.9 °C 29.7in /  1005.8hPa WSW 0.9mph /  1.4km/h 8mph /  12.9km/h 94% 0in /  0.0mm 0 W/m2
22:21 57 °F /  13.9 °C 55.2 °F /  12.9 °C 29.7in /  1005.8hPa NNW 2mph /  3.2km/h 5mph /  8km/h 94% 0in /  0.0mm 0 W/m2
22:26 57.2 °F /  14 °C 55.2 °F /  12.9 °C 29.7in /  1005.8hPa Calm     93% 0in /  0.0mm 0 W/m2
22:31 57.2 °F /  14 °C 55.2 °F /  12.9 °C 29.7in /  1005.8hPa NW 0.9mph /  1.4km/h 3mph /  4.8km/h 93% 0in /  0.0mm 0 W/m2
22:36 57.2 °F /  14 °C 55.2 °F /  12.9 °C 29.7in /  1005.8hPa NW 0.9mph /  1.4km/h 2mph /  3.2km/h 93% 0in /  0.0mm 0 W/m2
22:41 57.2 °F /  14 °C 55.2 °F /  12.9 °C 29.7in /  1006.1hPa ENE 2mph /  3.2km/h 4mph /  6.4km/h 93% 0in /  0.0mm 0 W/m2
22:46 57.4 °F /  14.1 °C 55.4 °F /  13 °C 29.7in /  1006.1hPa NNW 2mph /  3.2km/h 4mph /  6.4km/h 93% 0in /  0.0mm 0 W/m2
22:51 57.4 °F /  14.1 °C 55.4 °F /  13 °C 29.7in /  1006.1hPa North 0.9mph /  1.4km/h 2mph /  3.2km/h 93% 0in /  0.0mm 0 W/m2
22:56 57.4 °F /  14.1 °C 55.4 °F /  13 °C 29.7in /  1006.1hPa North 0.9mph /  1.4km/h 2mph /  3.2km/h 93% 0in /  0.0mm 0 W/m2
23:01 57.4 °F /  14.1 °C 55.4 °F /  13 °C 29.7in /  1006.1hPa WNW 2mph /  3.2km/h 4mph /  6.4km/h 93% 0in /  0.0mm 0 W/m2
23:06 57.4 °F /  14.1 °C 55.4 °F /  13 °C 29.7in /  1006.4hPa West 0.9mph /  1.4km/h 2mph /  3.2km/h 93% 0in /  0.0mm 0 W/m2
23:11 57.4 °F /  14.1 °C 55.4 °F /  13 °C 29.7in /  1006.4hPa Calm   4mph /  6.4km/h 93% 0in /  0.0mm 0 W/m2
23:16 57.4 °F /  14.1 °C 55.4 °F /  13 °C 29.7in /  1006.4hPa Calm     93% 0in /  0.0mm 0 W/m2
23:21 57.2 °F /  14 °C 55.2 °F /  12.9 °C 29.7in /  1006.4hPa Calm     93% 0in /  0.0mm 0 W/m2
23:26 57 °F /  13.9 °C 55 °F /  12.8 °C 29.7in /  1006.4hPa Calm     93% 0in /  0.0mm 0 W/m2
23:31 57 °F /  13.9 °C 55 °F /  12.8 °C 29.7in /  1006.4hPa Calm     93% 0in /  0.0mm 0 W/m2
23:36 56.8 °F /  13.8 °C 54.9 °F /  12.7 °C 29.7in /  1006.4hPa Calm   1mph /  1.6km/h 93% 0in /  0.0mm 0 W/m2
23:41 56.8 °F /  13.8 °C 55.2 °F /  12.9 °C 29.7in /  1006.4hPa Calm   3mph /  4.8km/h 94% 0.01in /  0.2mm 0 W/m2
23:46 56.8 °F /  13.8 °C 55.2 °F /  12.9 °C 29.7in /  1006.4hPa ENE 0.9mph /  1.4km/h 2mph /  3.2km/h 94% 0.01in /  0.2mm 0 W/m2
23:56 56.7 °F /  13.7 °C 55 °F /  12.8 °C 29.7in /  1006.8hPa Calm   1mph /  1.6km/h 94% 0.02in /  0.5mm 0 W/m2
Juneau County Weather
Compliments of Weather Underground - 4 mb